sensor_id;sensor_type;location;lat;lon;timestamp;temperature;humidity
17007;DHT22;8620;51.168;4.154;2023-05-07T07:01:47;19.00;99.90
17007;DHT22;8620;51.168;4.154;2023-05-07T07:04:36;19.00;99.90
17007;DHT22;8620;51.168;4.154;2023-05-07T07:10:25;18.90;99.90
17007;DHT22;8620;51.168;4.154;2023-05-07T07:13:16;18.80;99.90
17007;DHT22;8620;51.168;4.154;2023-05-07T07:16:02;19.20;99.90
17007;DHT22;8620;51.168;4.154;2023-05-07T07:18:51;19.70;99.90
17007;DHT22;8620;51.168;4.154;2023-05-07T07:21:38;19.60;99.90
17007;DHT22;8620;51.168;4.154;2023-05-07T07:24:27;19.70;99.90
17007;DHT22;8620;51.168;4.154;2023-05-07T07:30:28;19.50;99.90
17007;DHT22;8620;51.168;4.154;2023-05-07T07:33:17;18.80;99.90
17007;DHT22;8620;51.168;4.154;2023-05-07T07:36:01;18.10;99.90
17007;DHT22;8620;51.168;4.154;2023-05-07T07:39:00;18.00;99.90
17007;DHT22;8620;51.168;4.154;2023-05-07T07:44:36;18.80;99.90
17007;DHT22;8620;51.168;4.154;2023-05-07T07:48:03;18.80;99.90
17007;DHT22;8620;51.168;4.154;2023-05-07T07:51:09;18.20;99.90
17007;DHT22;8620;51.168;4.154;2023-05-07T07:54:16;17.90;99.90
17007;DHT22;8620;51.168;4.154;2023-05-07T07:57:01;17.80;99.90
17007;DHT22;8620;51.168;4.154;2023-05-07T08:00:06;17.50;99.90
17007;DHT22;8620;51.168;4.154;2023-05-07T08:02:56;17.80;99.90
17007;DHT22;8620;51.168;4.154;2023-05-07T08:06:13;17.90;99.90
17007;DHT22;8620;51.168;4.154;2023-05-07T08:09:01;18.40;99.90
17007;DHT22;8620;51.168;4.154;2023-05-07T08:11:52;18.00;99.90
17007;DHT22;8620;51.168;4.154;2023-05-07T08:14:41;17.90;99.90
17007;DHT22;8620;51.168;4.154;2023-05-07T08:17:48;18.00;99.90
17007;DHT22;8620;51.168;4.154;2023-05-07T08:23:44;18.80;99.90
17007;DHT22;8620;51.168;4.154;2023-05-07T08:26:30;18.60;99.90
17007;DHT22;8620;51.168;4.154;2023-05-07T08:29:27;18.90;99.90
17007;DHT22;8620;51.168;4.154;2023-05-07T08:32:33;18.70;99.90
17007;DHT22;8620;51.168;4.154;2023-05-07T08:38:52;18.40;99.90
17007;DHT22;8620;51.168;4.154;2023-05-07T08:41:40;18.50;99.90
17007;DHT22;8620;51.168;4.154;2023-05-07T08:44:32;18.50;99.90
17007;DHT22;8620;51.168;4.154;2023-05-07T08:47:29;17.80;99.90
17007;DHT22;8620;51.168;4.154;2023-05-07T08:50:30;18.30;99.90
17007;DHT22;8620;51.168;4.154;2023-05-07T08:53:16;18.70;99.90
17007;DHT22;8620;51.168;4.154;2023-05-07T08:56:14;18.00;99.90
17007;DHT22;8620;51.168;4.154;2023-05-07T08:58:57;17.90;99.90
17007;DHT22;8620;51.168;4.154;2023-05-07T09:01:34;18.30;99.90
17007;DHT22;8620;51.168;4.154;2023-05-07T09:04:27;18.10;99.90
17007;DHT22;8620;51.168;4.154;2023-05-07T09:07:15;17.70;99.90
17007;DHT22;8620;51.168;4.154;2023-05-07T09:10:12;17.50;99.90
17007;DHT22;8620;51.168;4.154;2023-05-07T09:12:49;17.80;99.90
17007;DHT22;8620;51.168;4.154;2023-05-07T09:15:48;18.10;99.90
17007;DHT22;8620;51.168;4.154;2023-05-07T09:18:39;18.50;99.90
17007;DHT22;8620;51.168;4.154;2023-05-07T09:21:47;18.00;99.90
17007;DHT22;8620;51.168;4.154;2023-05-07T09:24:15;17.50;99.90
17007;DHT22;8620;51.168;4.154;2023-05-07T09:27:07;17.10;99.90
17007;DHT22;8620;51.168;4.154;2023-05-07T09:30:03;17.00;99.90
17007;DHT22;8620;51.168;4.154;2023-05-07T09:33:03;17.40;99.90
17007;DHT22;8620;51.168;4.154;2023-05-07T09:36:08;17.40;99.90
17007;DHT22;8620;51.168;4.154;2023-05-07T09:39:04;17.20;99.90
17007;DHT22;8620;51.168;4.154;2023-05-07T09:41:51;17.40;99.90
17007;DHT22;8620;51.168;4.154;2023-05-07T09:44:23;17.20;99.90
17007;DHT22;8620;51.168;4.154;2023-05-07T09:47:18;17.00;99.90
17007;DHT22;8620;51.168;4.154;2023-05-07T09:50:08;17.10;99.90
17007;DHT22;8620;51.168;4.154;2023-05-07T09:52:59;17.00;99.90
17007;DHT22;8620;51.168;4.154;2023-05-07T09:55:50;17.30;99.90
17007;DHT22;8620;51.168;4.154;2023-05-07T09:58:39;16.90;99.90
17007;DHT22;8620;51.168;4.154;2023-05-07T10:01:27;16.90;99.90
17007;DHT22;8620;51.168;4.154;2023-05-07T10:04:03;17.50;99.90
17007;DHT22;8620;51.168;4.154;2023-05-07T10:06:45;18.00;99.90
17007;DHT22;8620;51.168;4.154;2023-05-07T10:09:53;17.90;99.90
17007;DHT22;8620;51.168;4.154;2023-05-07T10:12:39;17.40;99.90
17007;DHT22;8620;51.168;4.154;2023-05-07T10:15:44;17.70;99.90
17007;DHT22;8620;51.168;4.154;2023-05-07T10:18:39;17.50;99.90
17007;DHT22;8620;51.168;4.154;2023-05-07T10:33:29;16.80;99.90
17007;DHT22;8620;51.168;4.154;2023-05-07T10:36:20;17.10;99.90
17007;DHT22;8620;51.168;4.154;2023-05-07T10:39:09;17.30;99.90
17007;DHT22;8620;51.168;4.154;2023-05-07T10:41:48;17.60;99.90
17007;DHT22;8620;51.168;4.154;2023-05-07T10:44:56;18.20;99.90
17007;DHT22;8620;51.168;4.154;2023-05-07T10:50:51;17.80;99.90
17007;DHT22;8620;51.168;4.154;2023-05-07T10:56:49;17.80;99.90
17007;DHT22;8620;51.168;4.154;2023-05-07T11:05:47;19.60;99.90
17007;DHT22;8620;51.168;4.154;2023-05-07T11:08:55;19.10;99.90
17007;DHT22;8620;51.168;4.154;2023-05-07T11:11:47;19.30;99.90
17007;DHT22;8620;51.168;4.154;2023-05-07T11:14:55;19.50;99.90
17007;DHT22;8620;51.168;4.154;2023-05-07T11:17:51;19.40;99.90
17007;DHT22;8620;51.168;4.154;2023-05-07T11:26:50;19.80;99.90
17007;DHT22;8620;51.168;4.154;2023-05-07T11:29:52;20.20;99.90
17007;DHT22;8620;51.168;4.154;2023-05-07T11:32:47;20.00;99.90
17007;DHT22;8620;51.168;4.154;2023-05-07T11:35:44;20.00;99.90
17007;DHT22;8620;51.168;4.154;2023-05-07T11:38:35;19.90;99.90
17007;DHT22;8620;51.168;4.154;2023-05-07T11:41:32;20.40;99.90
17007;DHT22;8620;51.168;4.154;2023-05-07T11:44:07;19.90;99.90
17007;DHT22;8620;51.168;4.154;2023-05-07T11:47:16;20.40;99.90
17007;DHT22;8620;51.168;4.154;2023-05-07T11:50:06;20.10;99.90
17007;DHT22;8620;51.168;4.154;2023-05-07T11:52:59;19.90;99.90
17007;DHT22;8620;51.168;4.154;2023-05-07T11:56:07;20.20;99.90
17007;DHT22;8620;51.168;4.154;2023-05-07T11:58:55;19.70;99.90
17007;DHT22;8620;51.168;4.154;2023-05-07T12:01:43;20.10;99.90
17007;DHT22;8620;51.168;4.154;2023-05-07T12:04:22;20.10;99.90
17007;DHT22;8620;51.168;4.154;2023-05-07T12:10:23;20.30;99.90
17007;DHT22;8620;51.168;4.154;2023-05-07T12:13:16;20.10;99.90
17007;DHT22;8620;51.168;4.154;2023-05-07T12:19:05;20.70;99.90
17007;DHT22;8620;51.168;4.154;2023-05-07T12:21:46;20.60;99.90
17007;DHT22;8620;51.168;4.154;2023-05-07T12:24:19;21.10;99.90
17007;DHT22;8620;51.168;4.154;2023-05-07T12:27:12;20.60;99.90
17007;DHT22;8620;51.168;4.154;2023-05-07T12:29:52;20.60;99.90
17007;DHT22;8620;51.168;4.154;2023-05-07T12:32:43;21.00;99.90
17007;DHT22;8620;51.168;4.154;2023-05-07T12:35:39;20.90;99.90
17007;DHT22;8620;51.168;4.154;2023-05-07T12:38:26;20.70;99.90
17007;DHT22;8620;51.168;4.154;2023-05-07T12:41:20;20.30;99.90
17007;DHT22;8620;51.168;4.154;2023-05-07T12:43:56;20.80;99.90
17007;DHT22;8620;51.168;4.154;2023-05-07T12:46:28;20.90;99.90
17007;DHT22;8620;51.168;4.154;2023-05-07T12:49:20;20.80;99.90
17007;DHT22;8620;51.168;4.154;2023-05-07T12:51:58;20.80;99.90
17007;DHT22;8620;51.168;4.154;2023-05-07T12:55:08;20.60;99.90
17007;DHT22;8620;51.168;4.154;2023-05-07T12:58:01;21.60;99.90
17007;DHT22;8620;51.168;4.154;2023-05-07T13:00:44;22.60;99.90
17007;DHT22;8620;51.168;4.154;2023-05-07T13:04:03;22.40;99.90
17007;DHT22;8620;51.168;4.154;2023-05-07T13:06:40;21.70;99.90
17007;DHT22;8620;51.168;4.154;2023-05-07T13:09:18;22.00;99.90
17007;DHT22;8620;51.168;4.154;2023-05-07T13:11:55;22.60;99.90
17007;DHT22;8620;51.168;4.154;2023-05-07T13:17:50;22.40;99.90
17007;DHT22;8620;51.168;4.154;2023-05-07T13:20:40;21.60;99.90
17007;DHT22;8620;51.168;4.154;2023-05-07T13:23:46;20.70;99.90
17007;DHT22;8620;51.168;4.154;2023-05-07T13:26:21;20.70;99.90
17007;DHT22;8620;51.168;4.154;2023-05-07T13:29:01;20.70;99.90
17007;DHT22;8620;51.168;4.154;2023-05-07T13:32:18;20.30;99.90
17007;DHT22;8620;51.168;4.154;2023-05-07T13:35:07;19.80;99.90
17007;DHT22;8620;51.168;4.154;2023-05-07T13:40:45;19.30;99.90
17007;DHT22;8620;51.168;4.154;2023-05-07T13:43:14;18.90;99.90
17007;DHT22;8620;51.168;4.154;2023-05-07T13:46:09;19.00;99.90
17007;DHT22;8620;51.168;4.154;2023-05-07T13:48:59;19.40;99.90
17007;DHT22;8620;51.168;4.154;2023-05-07T13:51:33;19.80;99.90
17007;DHT22;8620;51.168;4.154;2023-05-07T13:54:28;20.20;99.90
17007;DHT22;8620;51.168;4.154;2023-05-07T13:57:24;20.20;99.90
17007;DHT22;8620;51.168;4.154;2023-05-07T14:03:25;20.30;99.90
17007;DHT22;8620;51.168;4.154;2023-05-07T14:06:37;20.30;99.90
17007;DHT22;8620;51.168;4.154;2023-05-07T14:09:23;20.10;99.90
17007;DHT22;8620;51.168;4.154;2023-05-07T14:15:33;20.10;99.90
17007;DHT22;8620;51.168;4.154;2023-05-07T14:18:28;20.60;99.90
17007;DHT22;8620;51.168;4.154;2023-05-07T14:21:22;19.70;99.90
17007;DHT22;8620;51.168;4.154;2023-05-07T14:24:13;19.70;99.90
17007;DHT22;8620;51.168;4.154;2023-05-07T14:27:00;19.80;99.90
17007;DHT22;8620;51.168;4.154;2023-05-07T14:30:08;20.10;99.90
17007;DHT22;8620;51.168;4.154;2023-05-07T14:32:58;20.20;99.90
17007;DHT22;8620;51.168;4.154;2023-05-07T14:36:10;20.60;99.90
17007;DHT22;8620;51.168;4.154;2023-05-07T14:39:01;21.30;99.90
17007;DHT22;8620;51.168;4.154;2023-05-07T14:41:35;21.50;99.90
17007;DHT22;8620;51.168;4.154;2023-05-07T14:44:38;21.80;99.90
17007;DHT22;8620;51.168;4.154;2023-05-07T14:47:30;21.40;99.90
17007;DHT22;8620;51.168;4.154;2023-05-07T14:53:19;21.20;99.90
17007;DHT22;8620;51.168;4.154;2023-05-07T14:56:25;21.30;99.90
17007;DHT22;8620;51.168;4.154;2023-05-07T14:59:14;21.00;99.90
17007;DHT22;8620;51.168;4.154;2023-05-07T15:02:25;21.30;99.90
17007;DHT22;8620;51.168;4.154;2023-05-07T15:05:24;21.40;99.90
17007;DHT22;8620;51.168;4.154;2023-05-07T15:08:30;21.90;99.90
17007;DHT22;8620;51.168;4.154;2023-05-07T15:11:37;22.00;99.90
17007;DHT22;8620;51.168;4.154;2023-05-07T15:14:26;22.00;99.90
17007;DHT22;8620;51.168;4.154;2023-05-07T15:17:24;22.20;99.90
17007;DHT22;8620;51.168;4.154;2023-05-07T15:20:32;22.10;99.90
17007;DHT22;8620;51.168;4.154;2023-05-07T15:23:47;21.90;99.90
17007;DHT22;8620;51.168;4.154;2023-05-07T15:26:41;21.80;99.90
17007;DHT22;8620;51.168;4.154;2023-05-07T15:29:30;21.80;99.90
17007;DHT22;8620;51.168;4.154;2023-05-07T15:32:18;22.20;99.90
17007;DHT22;8620;51.168;4.154;2023-05-07T15:38:23;21.40;99.90
17007;DHT22;8620;51.168;4.154;2023-05-07T15:41:21;21.90;99.90
17007;DHT22;8620;51.168;4.154;2023-05-07T15:44:12;22.00;99.90
17007;DHT22;8620;51.168;4.154;2023-05-07T15:47:04;21.90;99.90
17007;DHT22;8620;51.168;4.154;2023-05-07T15:50:02;22.30;99.90
17007;DHT22;8620;51.168;4.154;2023-05-07T15:52:51;22.00;99.90
17007;DHT22;8620;51.168;4.154;2023-05-07T15:56:21;21.60;99.90
17007;DHT22;8620;51.168;4.154;2023-05-07T15:59:04;21.70;99.90
17007;DHT22;8620;51.168;4.154;2023-05-07T16:01:40;22.40;99.90
17007;DHT22;8620;51.168;4.154;2023-05-07T16:04:17;22.40;99.90
17007;DHT22;8620;51.168;4.154;2023-05-07T16:07:03;21.90;99.90
17007;DHT22;8620;51.168;4.154;2023-05-07T16:10:04;21.80;99.90
17007;DHT22;8620;51.168;4.154;2023-05-07T16:13:13;22.10;99.90
17007;DHT22;8620;51.168;4.154;2023-05-07T16:16:37;22.80;99.90
17007;DHT22;8620;51.168;4.154;2023-05-07T16:19:25;22.90;99.90
17007;DHT22;8620;51.168;4.154;2023-05-07T16:22:31;22.50;99.90
17007;DHT22;8620;51.168;4.154;2023-05-07T16:25:35;21.70;99.90
17007;DHT22;8620;51.168;4.154;2023-05-07T16:28:36;21.30;99.90
17007;DHT22;8620;51.168;4.154;2023-05-07T16:31:22;21.80;99.90
17007;DHT22;8620;51.168;4.154;2023-05-07T16:34:46;20.80;99.90
17007;DHT22;8620;51.168;4.154;2023-05-07T16:37:53;20.90;99.90
17007;DHT22;8620;51.168;4.154;2023-05-07T16:41:16;21.00;99.90
17007;DHT22;8620;51.168;4.154;2023-05-07T16:44:38;21.50;99.90
17007;DHT22;8620;51.168;4.154;2023-05-07T16:47:42;20.50;99.90
17007;DHT22;8620;51.168;4.154;2023-05-07T16:50:43;20.20;99.90
17007;DHT22;8620;51.168;4.154;2023-05-07T16:53:38;20.70;99.90
17007;DHT22;8620;51.168;4.154;2023-05-07T16:56:34;21.10;99.90
17007;DHT22;8620;51.168;4.154;2023-05-07T16:59:16;21.20;99.90
17007;DHT22;8620;51.168;4.154;2023-05-07T17:02:25;21.50;99.90
17007;DHT22;8620;51.168;4.154;2023-05-07T17:05:15;21.80;99.90
17007;DHT22;8620;51.168;4.154;2023-05-07T17:08:07;21.80;99.90
17007;DHT22;8620;51.168;4.154;2023-05-07T17:11:14;21.90;99.90
17007;DHT22;8620;51.168;4.154;2023-05-07T17:14:00;22.10;99.90
17007;DHT22;8620;51.168;4.154;2023-05-07T17:19:50;22.30;99.90
17007;DHT22;8620;51.168;4.154;2023-05-07T17:22:36;21.90;99.90
17007;DHT22;8620;51.168;4.154;2023-05-07T17:25:30;21.80;99.90
17007;DHT22;8620;51.168;4.154;2023-05-07T17:28:20;21.70;99.90
17007;DHT22;8620;51.168;4.154;2023-05-07T17:31:17;21.40;99.90
17007;DHT22;8620;51.168;4.154;2023-05-07T17:34:08;21.30;99.90
17007;DHT22;8620;51.168;4.154;2023-05-07T17:37:04;21.30;99.90
17007;DHT22;8620;51.168;4.154;2023-05-07T17:40:10;21.10;99.90
17007;DHT22;8620;51.168;4.154;2023-05-07T17:43:02;21.00;99.90
17007;DHT22;8620;51.168;4.154;2023-05-07T17:46:00;20.60;99.90
17007;DHT22;8620;51.168;4.154;2023-05-07T17:48:49;20.70;99.90
17007;DHT22;8620;51.168;4.154;2023-05-07T17:51:39;20.40;99.90
17007;DHT22;8620;51.168;4.154;2023-05-07T17:54:26;19.70;99.90
17007;DHT22;8620;51.168;4.154;2023-05-07T17:57:05;19.20;99.90
17007;DHT22;8620;51.168;4.154;2023-05-07T17:59:54;19.10;99.90
17007;DHT22;8620;51.168;4.154;2023-05-07T18:02:29;19.00;99.90
17007;DHT22;8620;51.168;4.154;2023-05-07T18:05:38;18.80;99.90
17007;DHT22;8620;51.168;4.154;2023-05-07T18:08:28;18.90;99.90
17007;DHT22;8620;51.168;4.154;2023-05-07T18:11:32;18.80;99.90
17007;DHT22;8620;51.168;4.154;2023-05-07T18:14:56;18.60;99.90
17007;DHT22;8620;51.168;4.154;2023-05-07T18:21:06;17.90;99.90
17007;DHT22;8620;51.168;4.154;2023-05-07T18:24:31;17.80;99.90
17007;DHT22;8620;51.168;4.154;2023-05-07T18:27:43;17.70;99.90
17007;DHT22;8620;51.168;4.154;2023-05-07T18:33:44;17.80;99.90
17007;DHT22;8620;51.168;4.154;2023-05-07T18:36:51;17.90;99.90
17007;DHT22;8620;51.168;4.154;2023-05-07T18:39:46;18.00;99.90
17007;DHT22;8620;51.168;4.154;2023-05-07T18:42:41;17.90;99.90
17007;DHT22;8620;51.168;4.154;2023-05-07T18:45:27;17.80;99.90
17007;DHT22;8620;51.168;4.154;2023-05-07T18:48:34;18.10;99.90
17007;DHT22;8620;51.168;4.154;2023-05-07T18:51:36;18.20;99.90
17007;DHT22;8620;51.168;4.154;2023-05-07T18:54:22;18.30;99.90
17007;DHT22;8620;51.168;4.154;2023-05-07T18:57:42;18.20;99.90
17007;DHT22;8620;51.168;4.154;2023-05-07T19:00:48;18.10;99.90
17007;DHT22;8620;51.168;4.154;2023-05-07T19:03:37;18.10;99.90
17007;DHT22;8620;51.168;4.154;2023-05-07T19:06:26;18.10;99.90
17007;DHT22;8620;51.168;4.154;2023-05-07T19:09:31;18.40;99.90
17007;DHT22;8620;51.168;4.154;2023-05-07T19:16:02;18.50;99.90
17007;DHT22;8620;51.168;4.154;2023-05-07T19:19:13;18.30;99.90
17007;DHT22;8620;51.168;4.154;2023-05-07T19:22:48;18.30;99.90
17007;DHT22;8620;51.168;4.154;2023-05-07T19:25:50;17.80;99.90
17007;DHT22;8620;51.168;4.154;2023-05-07T19:32:17;18.30;99.90
17007;DHT22;8620;51.168;4.154;2023-05-07T19:35:09;18.30;99.90
17007;DHT22;8620;51.168;4.154;2023-05-07T19:41:16;18.50;99.90
17007;DHT22;8620;51.168;4.154;2023-05-07T19:47:39;18.70;99.90
17007;DHT22;8620;51.168;4.154;2023-05-07T19:50:46;18.80;99.90
17007;DHT22;8620;51.168;4.154;2023-05-07T19:54:05;18.80;99.90
17007;DHT22;8620;51.168;4.154;2023-05-07T19:57:13;18.60;99.90
17007;DHT22;8620;51.168;4.154;2023-05-07T20:00:19;19.00;99.90
17007;DHT22;8620;51.168;4.154;2023-05-07T20:03:14;18.80;99.90
17007;DHT22;8620;51.168;4.154;2023-05-07T20:06:02;19.00;99.90
17007;DHT22;8620;51.168;4.154;2023-05-07T20:09:06;19.10;99.90
17007;DHT22;8620;51.168;4.154;2023-05-07T20:12:12;18.70;99.90
17007;DHT22;8620;51.168;4.154;2023-05-07T20:15:05;18.60;99.90
17007;DHT22;8620;51.168;4.154;2023-05-07T20:20:46;19.00;99.90
17007;DHT22;8620;51.168;4.154;2023-05-07T20:23:58;18.90;99.90
17007;DHT22;8620;51.168;4.154;2023-05-07T20:26:47;18.60;99.90
17007;DHT22;8620;51.168;4.154;2023-05-07T20:29:20;18.70;99.90
17007;DHT22;8620;51.168;4.154;2023-05-07T20:31:50;18.50;99.90
17007;DHT22;8620;51.168;4.154;2023-05-07T20:34:39;18.60;99.90
17007;DHT22;8620;51.168;4.154;2023-05-07T20:37:31;18.80;99.90
17007;DHT22;8620;51.168;4.154;2023-05-07T20:40:16;18.90;99.90
17007;DHT22;8620;51.168;4.154;2023-05-07T20:42:51;19.10;99.90
17007;DHT22;8620;51.168;4.154;2023-05-07T20:45:18;19.10;99.90
17007;DHT22;8620;51.168;4.154;2023-05-07T20:47:56;19.10;99.90
17007;DHT22;8620;51.168;4.154;2023-05-07T20:50:26;18.80;99.90
17007;DHT22;8620;51.168;4.154;2023-05-07T20:53:12;18.90;99.90
17007;DHT22;8620;51.168;4.154;2023-05-07T20:55:56;18.90;99.90
